createdAt,value
2018-08-18T00:00:46.440Z,1004.82
2018-08-18T00:01:47.953Z,1004.97
2018-08-18T00:02:49.809Z,1004.91
2018-08-18T00:03:47.860Z,1004.89
2018-08-18T00:04:53.821Z,1004.91
2018-08-18T00:05:53.870Z,1004.85
2018-08-18T00:06:48.695Z,1004.79
2018-08-18T00:08:02.499Z,1004.88
2018-08-18T00:09:02.028Z,1004.86
2018-08-18T00:10:05.499Z,1004.91
2018-08-18T00:11:06.097Z,1004.94
2018-08-18T00:12:03.800Z,1004.94
2018-08-18T00:13:01.521Z,1004.94
2018-08-18T00:14:01.431Z,1004.95
2018-08-18T00:14:59.559Z,1004.97
2018-08-18T00:16:05.421Z,1004.98
2018-08-18T00:17:05.422Z,1004.98
2018-08-18T00:18:10.732Z,1005
2018-08-18T00:19:09.844Z,1005.03
2018-08-18T00:20:22.822Z,1005.06
2018-08-18T00:21:17.579Z,1005.06
2018-08-18T00:22:17.019Z,1005.03
2018-08-18T00:23:21.932Z,1004.98
2018-08-18T00:24:21.349Z,1005.04
2018-08-18T00:25:19.467Z,1005.01
2018-08-18T00:26:17.607Z,1004.97
2018-08-18T00:27:19.069Z,1005
2018-08-18T00:28:18.587Z,1005
2018-08-18T00:29:15.055Z,1005
2018-08-18T00:30:27.656Z,1005
2018-08-18T00:31:22.893Z,1005
2018-08-18T00:32:23.033Z,1004.94
2018-08-18T00:33:23.664Z,1004.97
2018-08-18T00:34:22.206Z,1004.95
2018-08-18T00:35:20.008Z,1004.97
2018-08-18T00:36:17.942Z,1004.98
2018-08-18T00:37:15.955Z,1004.94
2018-08-18T00:38:18.001Z,1005
2018-08-18T00:39:18.029Z,1004.92
2018-08-18T00:40:17.655Z,1004.92
2018-08-18T00:41:15.335Z,1004.91
2018-08-18T00:42:13.107Z,1004.94
2018-08-18T00:43:23.475Z,1004.94
2018-08-18T00:44:23.270Z,1004.94
2018-08-18T00:45:21.604Z,1005
2018-08-18T00:46:21.621Z,1004.97
2018-08-18T00:47:21.648Z,1004.89
2018-08-18T00:48:22.038Z,1004.98
2018-08-18T00:49:21.557Z,1004.95
2018-08-18T00:50:26.584Z,1004.88
2018-08-18T00:51:21.877Z,1004.95
2018-08-18T00:52:23.811Z,1004.98
2018-08-18T00:53:21.424Z,1005.07
2018-08-18T00:54:16.674Z,1004.94
2018-08-18T00:55:23.673Z,1004.94
2018-08-18T00:56:37.149Z,1004.96
2018-08-18T00:57:34.503Z,1005.04
2018-08-18T00:58:32.222Z,1004.95
2018-08-18T00:59:34.304Z,1004.98
2018-08-18T01:00:31.279Z,1005.02
2018-08-18T01:01:32.306Z,1005.07
2018-08-18T01:02:38.973Z,1005.02
2018-08-18T01:03:37.412Z,1005.07
2018-08-18T01:04:39.665Z,1005.02
2018-08-18T01:05:36.900Z,1005.04
2018-08-18T01:06:40.101Z,1005.08
2018-08-18T01:07:35.569Z,1005.08
2018-08-18T01:08:05.653Z,1005.01
2018-08-18T01:09:04.217Z,1005.05
2018-08-18T01:10:03.037Z,1005.07
2018-08-18T01:11:00.878Z,1004.98
2018-08-18T01:11:59.342Z,1005.13
2018-08-18T01:13:17.527Z,1005.04
2018-08-18T01:14:12.138Z,1005.1
2018-08-18T01:15:10.744Z,1005.11
2018-08-18T01:16:13.941Z,1005.07
2018-08-18T01:17:21.741Z,1005.07
2018-08-18T01:18:22.512Z,1005.07
2018-08-18T01:19:20.211Z,1005.05
2018-08-18T01:20:21.419Z,1005.07
2018-08-18T01:21:22.229Z,1005.05
2018-08-18T01:22:22.479Z,1005.02
2018-08-18T01:23:42.834Z,1005.08
2018-08-18T01:24:39.345Z,1005.1
2018-08-18T01:25:37.245Z,1005.04
2018-08-18T01:26:40.105Z,1005.01
2018-08-18T01:27:39.429Z,1005.08
2018-08-18T01:28:40.016Z,1005.04
2018-08-18T01:29:40.658Z,1004.99
2018-08-18T01:30:38.723Z,1004.96
2018-08-18T01:31:36.967Z,1004.92
2018-08-18T01:32:37.002Z,1004.92
2018-08-18T01:33:55.463Z,1004.89
2018-08-18T01:34:52.795Z,1005.05
2018-08-18T01:35:56.397Z,1005.05
2018-08-18T01:36:56.707Z,1005.02
2018-08-18T01:37:57.554Z,1004.95
2018-08-18T01:38:55.660Z,1005.05
2018-08-18T01:39:57.869Z,1005.05
2018-08-18T01:40:56.989Z,1005.05
2018-08-18T01:41:58.918Z,1005.08
2018-08-18T01:42:57.208Z,1005.07
2018-08-18T01:43:56.572Z,1005.05
2018-08-18T01:44:55.097Z,1005.07
2018-08-18T01:45:54.411Z,1005.11
2018-08-18T01:47:01.127Z,1005.02
2018-08-18T01:48:13.230Z,1004.99
2018-08-18T01:49:09.959Z,1005.04
2018-08-18T01:50:15.860Z,1005.08
2018-08-18T01:51:21.690Z,1005.07
2018-08-18T01:52:19.549Z,1005.09
2018-08-18T01:53:21.403Z,1005.05
2018-08-18T01:54:21.637Z,1005.05
2018-08-18T01:55:23.191Z,1005.14
2018-08-18T01:56:26.977Z,1005.06
2018-08-18T01:57:26.317Z,1005.08
2018-08-18T01:58:23.779Z,1005.08
2018-08-18T01:59:45.071Z,1005.12
2018-08-18T02:00:40.106Z,1005.12
2018-08-18T02:01:40.136Z,1005.05
2018-08-18T02:02:41.121Z,1005.09
2018-08-18T02:03:48.125Z,1005.12
2018-08-18T02:04:45.954Z,1005.11
2018-08-18T02:05:45.233Z,1005.12
2018-08-18T02:06:44.366Z,1005.18
2018-08-18T02:07:43.956Z,1005.09
2018-08-18T02:08:43.574Z,1005.14
2018-08-18T02:09:56.650Z,1005.08
2018-08-18T02:10:52.042Z,1005.11
2018-08-18T02:11:49.727Z,1005.11
2018-08-18T02:12:55.328Z,1005.12
2018-08-18T02:13:53.582Z,1005.06
2018-08-18T02:14:56.477Z,1005.11
2018-08-18T02:16:00.941Z,1005.14
2018-08-18T02:16:59.633Z,1005.17
2018-08-18T02:17:58.336Z,1005.08
2018-08-18T02:18:56.184Z,1005.18
2018-08-18T02:19:52.543Z,1005.14
2018-08-18T02:21:04.350Z,1005.05
2018-08-18T02:21:59.212Z,1005.09
2018-08-18T02:23:11.727Z,1005.06
2018-08-18T02:24:17.591Z,1005.11
2018-08-18T02:25:17.916Z,1005.12
2018-08-18T02:26:15.881Z,1005.12
2018-08-18T02:27:16.362Z,1005
2018-08-18T02:28:14.448Z,1005.06
2018-08-18T02:29:14.613Z,1005.03
2018-08-18T02:30:09.903Z,1005.03
2018-08-18T02:31:10.269Z,1005.08
2018-08-18T02:32:11.577Z,1005.05
2018-08-18T02:33:17.526Z,1005.02
2018-08-18T02:34:31.800Z,1005
2018-08-18T02:35:28.788Z,1005.02
2018-08-18T02:36:27.583Z,1005.02
2018-08-18T02:37:27.823Z,1004.97
2018-08-18T02:38:26.492Z,1005.11
2018-08-18T02:39:31.211Z,1005.02
2018-08-18T02:40:30.230Z,1005.03
2018-08-18T02:41:24.792Z,1005
2018-08-18T02:42:32.043Z,1005.08
2018-08-18T02:43:28.110Z,1005.06
2018-08-18T02:44:25.917Z,1005.02
2018-08-18T02:45:39.735Z,1005.2
2018-08-18T02:46:37.738Z,1005.14
2018-08-18T02:47:37.282Z,1005.11
2018-08-18T02:48:36.581Z,1005.02
2018-08-18T02:49:34.449Z,1005.05
2018-08-18T02:50:43.662Z,1005.05
2018-08-18T02:51:42.500Z,1005.05
2018-08-18T02:52:42.911Z,1005.05
2018-08-18T02:53:41.617Z,1005.12
2018-08-18T02:54:40.561Z,1005.05
2018-08-18T02:55:37.490Z,1005
2018-08-18T02:56:49.681Z,1005.02
2018-08-18T02:57:44.008Z,1005.08
2018-08-18T02:58:41.920Z,1005.12
2018-08-18T02:59:49.528Z,1005.06
2018-08-18T03:00:48.442Z,1005.17
2018-08-18T03:01:46.637Z,1005.09
2018-08-18T03:02:56.371Z,1005.06
2018-08-18T03:03:54.077Z,1005.06
2018-08-18T03:04:52.127Z,1005.09
2018-08-18T03:05:49.868Z,1005.05
2018-08-18T03:06:58.323Z,1005.11
2018-08-18T03:07:55.463Z,1005.12
2018-08-18T03:09:01.818Z,1005.06
2018-08-18T03:10:17.059Z,1005.19
2018-08-18T03:11:13.118Z,1005.15
2018-08-18T03:12:11.457Z,1005.12
2018-08-18T03:13:13.916Z,1005.21
2018-08-18T03:14:21.092Z,1005.11
2018-08-18T03:15:28.552Z,1005.11
2018-08-18T03:16:28.988Z,1005.24
2018-08-18T03:17:27.864Z,1005.12
2018-08-18T03:18:27.058Z,1005.15
2018-08-18T03:19:25.385Z,1005.16
2018-08-18T03:20:26.869Z,1005.16
2018-08-18T03:21:24.111Z,1005.25
2018-08-18T03:22:35.054Z,1005.19
2018-08-18T03:23:32.468Z,1005.15
2018-08-18T03:24:30.298Z,1005.12
2018-08-18T03:25:30.291Z,1005.14
2018-08-18T03:26:29.152Z,1005.08
2018-08-18T03:27:27.614Z,1005.06
2018-08-18T03:28:28.094Z,1005.18
2018-08-18T03:29:27.397Z,1005.11
2018-08-18T03:30:27.843Z,1005.15
2018-08-18T03:31:26.669Z,1005.12
2018-08-18T03:32:25.461Z,1005.19
2018-08-18T03:33:24.680Z,1005.21
2018-08-18T03:34:27.080Z,1005.14
2018-08-18T03:35:53.753Z,1005.22
2018-08-18T03:36:44.080Z,1005.22
2018-08-18T03:37:43.205Z,1005.14
2018-08-18T03:38:40.823Z,1005.21
2018-08-18T03:39:49.456Z,1005.19
2018-08-18T03:40:49.317Z,1005.18
2018-08-18T03:41:54.765Z,1005.16
2018-08-18T03:42:53.215Z,1005.13
2018-08-18T03:44:00.042Z,1005.18
2018-08-18T03:44:58.308Z,1005.16
2018-08-18T03:46:17.342Z,1005.22
2018-08-18T03:47:32.160Z,1005.22
2018-08-18T03:48:26.424Z,1005.18
2018-08-18T03:49:32.581Z,1005.25
2018-08-18T03:50:30.705Z,1005.19
2018-08-18T03:51:28.860Z,1005.24
2018-08-18T03:52:30.597Z,1005.15
2018-08-18T03:53:31.370Z,1005.24
2018-08-18T03:54:30.771Z,1005.22
2018-08-18T03:55:30.110Z,1005.21
2018-08-18T03:56:36.635Z,1005.22
2018-08-18T03:57:36.045Z,1005.24
2018-08-18T03:58:40.145Z,1005.3
2018-08-18T03:59:50.827Z,1005.24
2018-08-18T04:00:59.095Z,1005.28
2018-08-18T04:02:15.023Z,1005.19
2018-08-18T04:03:12.715Z,1005.24
2018-08-18T04:04:11.237Z,1005.3
2018-08-18T04:05:10.669Z,1005.22
2018-08-18T04:06:10.039Z,1005.21
2018-08-18T04:07:09.899Z,1005.27
2018-08-18T04:08:16.206Z,1005.18
2018-08-18T04:09:12.447Z,1005.25
2018-08-18T04:10:15.982Z,1005.28
2018-08-18T04:11:27.670Z,1005.24
2018-08-18T04:12:29.251Z,1005.34
2018-08-18T04:13:27.622Z,1005.27
2018-08-18T04:14:26.189Z,1005.25
2018-08-18T04:15:30.800Z,1005.37
2018-08-18T04:16:37.634Z,1005.31
2018-08-18T04:17:36.448Z,1005.3
2018-08-18T04:18:39.266Z,1005.34
2018-08-18T04:19:41.885Z,1005.33
2018-08-18T04:20:39.670Z,1005.31
2018-08-18T04:21:38.124Z,1005.37
2018-08-18T04:22:36.489Z,1005.36
2018-08-18T04:23:56.012Z,1005.28
2018-08-18T04:24:51.195Z,1005.36
2018-08-18T04:25:48.838Z,1005.37
2018-08-18T04:26:49.726Z,1005.37
2018-08-18T04:27:49.534Z,1005.45
2018-08-18T04:28:53.523Z,1005.39
2018-08-18T04:29:52.535Z,1005.4
2018-08-18T04:30:50.967Z,1005.4
2018-08-18T04:31:45.419Z,1005.47
2018-08-18T04:32:48.438Z,1005.45
2018-08-18T04:33:55.368Z,1005.43
2018-08-18T04:34:54.810Z,1005.44
2018-08-18T04:35:56.345Z,1005.47
2018-08-18T04:37:01.851Z,1005.44
2018-08-18T04:37:57.052Z,1005.43
2018-08-18T04:39:08.969Z,1005.53
2018-08-18T04:40:06.558Z,1005.56
2018-08-18T04:41:04.329Z,1005.44
2018-08-18T04:42:03.314Z,1005.52
2018-08-18T04:43:03.521Z,1005.47
2018-08-18T04:44:05.521Z,1005.44
2018-08-18T04:45:14.556Z,1005.47
2018-08-18T04:46:17.439Z,1005.53
2018-08-18T04:47:19.558Z,1005.5
2018-08-18T04:48:31.408Z,1005.46
2018-08-18T04:49:33.597Z,1005.55
2018-08-18T04:50:35.328Z,1005.46
2018-08-18T04:51:35.712Z,1005.46
2018-08-18T04:52:32.602Z,1005.52
2018-08-18T04:53:44.471Z,1005.4
2018-08-18T04:54:42.056Z,1005.49
2018-08-18T04:55:37.688Z,1005.47
2018-08-18T04:56:38.877Z,1005.47
2018-08-18T04:57:47.632Z,1005.41
2018-08-18T04:58:52.365Z,1005.55
2018-08-18T04:59:48.768Z,1005.4
2018-08-18T05:00:49.692Z,1005.49
2018-08-18T05:01:50.448Z,1005.5
2018-08-18T05:02:48.232Z,1005.46
2018-08-18T05:03:47.658Z,1005.59
2018-08-18T05:05:03.254Z,1005.55
2018-08-18T05:05:59.656Z,1005.52
2018-08-18T05:07:01.533Z,1005.61
2018-08-18T05:08:07.898Z,1005.56
2018-08-18T05:09:07.914Z,1005.53
2018-08-18T05:10:05.430Z,1005.46
2018-08-18T05:11:09.475Z,1005.49
2018-08-18T05:12:12.058Z,1005.49
2018-08-18T05:13:15.838Z,1005.55
2018-08-18T05:14:19.294Z,1005.55
2018-08-18T05:15:21.313Z,1005.56
2018-08-18T05:16:24.182Z,1005.64
2018-08-18T05:17:36.872Z,1005.55
2018-08-18T05:18:36.730Z,1005.58
2018-08-18T05:19:39.810Z,1005.59
2018-08-18T05:20:41.912Z,1005.55
2018-08-18T05:21:43.457Z,1005.55
2018-08-18T05:22:41.619Z,1005.58
2018-08-18T05:24:01.438Z,1005.5
2018-08-18T05:25:00.543Z,1005.52
2018-08-18T05:25:58.781Z,1005.5
2018-08-18T05:26:58.031Z,1005.52
2018-08-18T05:27:56.642Z,1005.5
2018-08-18T05:28:54.026Z,1005.46
2018-08-18T05:30:17.868Z,1005.61
2018-08-18T05:31:15.516Z,1005.61
2018-08-18T05:32:14.707Z,1005.52
2018-08-18T05:33:13.292Z,1005.56
2018-08-18T05:34:16.495Z,1005.58
2018-08-18T05:35:14.885Z,1005.61
2018-08-18T05:36:13.574Z,1005.59
2018-08-18T05:37:13.730Z,1005.56
2018-08-18T05:38:18.765Z,1005.56
2018-08-18T05:39:20.852Z,1005.58
2018-08-18T05:40:22.560Z,1005.62
2018-08-18T05:41:26.574Z,1005.61
2018-08-18T05:42:30.052Z,1005.65
2018-08-18T05:43:31.777Z,1005.65
2018-08-18T05:44:46.208Z,1005.65
2018-08-18T05:45:41.953Z,1005.63
2018-08-18T05:46:39.839Z,1005.71
2018-08-18T05:47:47.951Z,1005.66
2018-08-18T05:48:48.209Z,1005.68
2018-08-18T05:49:46.829Z,1005.71
2018-08-18T05:50:54.650Z,1005.61
2018-08-18T05:51:59.076Z,1005.65
2018-08-18T05:52:56.933Z,1005.65
2018-08-18T05:53:58.568Z,1005.58
2018-08-18T05:54:57.613Z,1005.69
2018-08-18T05:55:59.158Z,1005.68
2018-08-18T05:56:56.763Z,1005.66
2018-08-18T05:57:57.466Z,1005.64
2018-08-18T05:58:55.697Z,1005.72
2018-08-18T05:59:51.847Z,1005.68
2018-08-18T06:01:03.064Z,1005.66
2018-08-18T06:01:59.669Z,1005.65
2018-08-18T06:02:57.847Z,1005.68
2018-08-18T06:03:56.984Z,1005.69
2018-08-18T06:04:58.181Z,1005.62
2018-08-18T06:05:59.330Z,1005.71
2018-08-18T06:06:57.065Z,1005.66
2018-08-18T06:07:54.809Z,1005.71
2018-08-18T06:09:00.617Z,1005.66
2018-08-18T06:10:00.683Z,1005.71
2018-08-18T06:10:55.832Z,1005.72
2018-08-18T06:11:53.698Z,1005.72
2018-08-18T06:13:06.255Z,1005.74
2018-08-18T06:14:03.580Z,1005.78
2018-08-18T06:15:03.969Z,1005.81
2018-08-18T06:16:02.625Z,1005.83
2018-08-18T06:17:05.313Z,1005.78
2018-08-18T06:18:03.415Z,1005.81
2018-08-18T06:19:01.493Z,1005.8
2018-08-18T06:19:59.910Z,1005.95
2018-08-18T06:21:02.549Z,1005.96
2018-08-18T06:22:00.977Z,1005.92
2018-08-18T06:23:09.245Z,1006.02
2018-08-18T06:24:04.964Z,1006.01
2018-08-18T06:25:19.436Z,1005.95
2018-08-18T06:26:16.093Z,1005.93
2018-08-18T06:27:16.060Z,1005.93
2018-08-18T06:28:20.077Z,1006.01
2018-08-18T06:29:19.088Z,1005.95
2018-08-18T06:30:22.586Z,1005.9
2018-08-18T06:31:23.902Z,1006.07
2018-08-18T06:32:24.295Z,1006.01
2018-08-18T06:33:24.915Z,1005.93
2018-08-18T06:34:24.279Z,1005.9
2018-08-18T06:35:23.212Z,1005.96
2018-08-18T06:36:25.884Z,1005.96
2018-08-18T06:37:22.878Z,1005.95
2018-08-18T06:38:36.509Z,1005.96
2018-08-18T06:39:34.101Z,1006.08
2018-08-18T06:40:38.243Z,1006.06
2018-08-18T06:41:36.925Z,1006.02
2018-08-18T06:42:35.926Z,1006
2018-08-18T06:43:45.028Z,1006.02
2018-08-18T06:44:42.606Z,1006
2018-08-18T06:45:49.635Z,1006.09
2018-08-18T06:46:55.943Z,1005.97
2018-08-18T06:47:55.799Z,1006.02
2018-08-18T06:48:53.935Z,1006.06
2018-08-18T06:49:53.013Z,1005.97
2018-08-18T06:50:49.045Z,1005.94
2018-08-18T06:51:59.499Z,1006.03
2018-08-18T06:52:56.063Z,1006
2018-08-18T06:53:54.591Z,1005.94
2018-08-18T06:54:54.048Z,1006.05
2018-08-18T06:55:55.604Z,1005.99
2018-08-18T06:56:53.780Z,1006.05
2018-08-18T06:57:52.134Z,1005.96
2018-08-18T06:58:50.991Z,1005.96
2018-08-18T06:59:49.933Z,1005.95
2018-08-18T07:00:54.802Z,1005.92
2018-08-18T07:01:54.207Z,1005.99
2018-08-18T07:02:57.148Z,1005.95
2018-08-18T07:03:58.720Z,1006.01
2018-08-18T07:04:57.727Z,1006.02
2018-08-18T07:05:55.826Z,1006.05
2018-08-18T07:07:07.602Z,1005.99
2018-08-18T07:08:02.683Z,1006.07
2018-08-18T07:09:00.343Z,1005.99
2018-08-18T07:09:59.864Z,1006.05
2018-08-18T07:10:58.053Z,1006.1
2018-08-18T07:11:55.804Z,1006.04
2018-08-18T07:12:55.160Z,1006.1
2018-08-18T07:13:57.178Z,1006.11
2018-08-18T07:14:56.838Z,1005.99
2018-08-18T07:15:54.467Z,1006.1
2018-08-18T07:16:50.048Z,1006.1
2018-08-18T07:17:48.169Z,1006.13
2018-08-18T07:19:07.368Z,1006.05
2018-08-18T07:20:08.386Z,1006.1
2018-08-18T07:21:06.855Z,1006.17
2018-08-18T07:22:08.124Z,1006.17
2018-08-18T07:23:07.199Z,1006.08
2018-08-18T07:24:12.397Z,1006.13
2018-08-18T07:25:08.083Z,1006.11
2018-08-18T07:26:11.236Z,1006.1
2018-08-18T07:27:09.116Z,1006.13
2018-08-18T07:28:07.483Z,1006.1
2018-08-18T07:29:06.999Z,1006.25
2018-08-18T07:30:04.772Z,1006.16
2018-08-18T07:31:04.899Z,1006.2
2018-08-18T07:32:02.889Z,1006.16
2018-08-18T07:33:00.977Z,1006.16
2018-08-18T07:33:56.946Z,1006.15
2018-08-18T07:35:22.367Z,1006.13
2018-08-18T07:36:08.455Z,1006.22
2018-08-18T07:37:17.811Z,1006.18
2018-08-18T07:38:20.696Z,1006.25
2018-08-18T07:39:18.976Z,1006.13
2018-08-18T07:40:21.948Z,1006.21
2018-08-18T07:41:23.569Z,1006.13
2018-08-18T07:42:21.334Z,1006.19
2018-08-18T07:43:24.952Z,1006.24
2018-08-18T07:44:23.882Z,1006.18
2018-08-18T07:45:25.131Z,1006.25
2018-08-18T07:46:20.419Z,1006.19
2018-08-18T07:47:29.962Z,1006.22
2018-08-18T07:48:28.045Z,1006.21
2018-08-18T07:49:41.568Z,1006.27
2018-08-18T07:50:36.559Z,1006.24
2018-08-18T07:51:38.064Z,1006.28
2018-08-18T07:52:35.706Z,1006.33
2018-08-18T07:53:35.436Z,1006.27
2018-08-18T07:54:17.272Z,1006.33
2018-08-18T07:55:25.186Z,1006.26
2018-08-18T07:56:23.825Z,1006.32
2018-08-18T07:57:22.619Z,1006.36
2018-08-18T07:58:24.680Z,1006.36
2018-08-18T07:59:40.866Z,1006.23
2018-08-18T08:00:40.652Z,1006.33
2018-08-18T08:01:46.976Z,1006.23
2018-08-18T08:02:47.805Z,1006.27
2018-08-18T08:03:46.098Z,1006.2
2018-08-18T08:04:46.019Z,1006.27
2018-08-18T08:05:45.867Z,1006.3
2018-08-18T08:06:42.473Z,1006.3
2018-08-18T08:07:43.696Z,1006.29
2018-08-18T08:08:38.493Z,1006.33
2018-08-18T08:09:52.571Z,1006.29
2018-08-18T08:10:47.226Z,1006.29
2018-08-18T08:11:44.894Z,1006.21
2018-08-18T08:12:44.516Z,1006.23
2018-08-18T08:13:42.775Z,1006.24
2018-08-18T08:14:47.187Z,1006.29
2018-08-18T08:15:46.100Z,1006.23
2018-08-18T08:16:46.826Z,1006.29
2018-08-18T08:17:44.689Z,1006.35
2018-08-18T08:19:01.552Z,1006.25
2018-08-18T08:20:01.211Z,1006.25
2018-08-18T08:21:05.016Z,1006.28
2018-08-18T08:22:03.264Z,1006.39
2018-08-18T08:23:01.035Z,1006.32
2018-08-18T08:24:13.548Z,1006.26
2018-08-18T08:25:12.169Z,1006.36
2018-08-18T08:26:10.057Z,1006.35
2018-08-18T08:27:18.848Z,1006.35
2018-08-18T08:28:19.313Z,1006.39
2018-08-18T08:29:16.944Z,1006.41
2018-08-18T08:30:14.782Z,1006.37
2018-08-18T08:31:17.107Z,1006.41
2018-08-18T08:32:14.792Z,1006.41
2018-08-18T08:33:13.135Z,1006.35
2018-08-18T08:34:11.220Z,1006.5
2018-08-18T08:35:11.625Z,1006.5
2018-08-18T08:36:10.074Z,1006.42
2018-08-18T08:37:09.355Z,1006.44
2018-08-18T08:38:21.551Z,1006.44
2018-08-18T08:39:17.865Z,1006.5
2018-08-18T08:40:19.908Z,1006.38
2018-08-18T08:41:20.542Z,1006.47
2018-08-18T08:42:25.649Z,1006.45
2018-08-18T08:43:23.693Z,1006.48
2018-08-18T08:44:23.550Z,1006.36
2018-08-18T08:45:33.229Z,1006.41
2018-08-18T08:46:40.586Z,1006.44
2018-08-18T08:47:40.665Z,1006.38
2018-08-18T08:48:39.755Z,1006.49
2018-08-18T08:49:34.467Z,1006.38
2018-08-18T08:50:36.688Z,1006.36
2018-08-18T08:51:35.079Z,1006.44
2018-08-18T08:52:48.303Z,1006.39
2018-08-18T08:53:44.504Z,1006.48
2018-08-18T08:54:42.482Z,1006.44
2018-08-18T08:55:40.221Z,1006.5
2018-08-18T08:56:38.118Z,1006.5
2018-08-18T08:57:35.568Z,1006.58
2018-08-18T08:58:38.297Z,1006.51
2018-08-18T08:59:40.961Z,1006.5
2018-08-18T09:00:45.477Z,1006.51
2018-08-18T09:01:53.221Z,1006.55
2018-08-18T09:02:52.688Z,1006.5
2018-08-18T09:04:03.393Z,1006.5
2018-08-18T09:05:19.908Z,1006.5
2018-08-18T09:06:14.918Z,1006.44
2018-08-18T09:07:16.723Z,1006.5
2018-08-18T09:08:16.201Z,1006.55
2018-08-18T09:09:20.511Z,1006.55
2018-08-18T09:10:18.348Z,1006.5
2018-08-18T09:11:21.699Z,1006.51
2018-08-18T09:12:22.536Z,1006.39
2018-08-18T09:13:26.999Z,1006.53
2018-08-18T09:14:26.306Z,1006.51
2018-08-18T09:15:23.987Z,1006.51
2018-08-18T09:16:37.610Z,1006.48
2018-08-18T09:17:32.182Z,1006.44
2018-08-18T09:18:30.068Z,1006.45
2018-08-18T09:19:30.519Z,1006.48
2018-08-18T09:20:31.806Z,1006.51
2018-08-18T09:21:36.123Z,1006.48
2018-08-18T09:22:31.645Z,1006.44
2018-08-18T09:23:33.203Z,1006.51
2018-08-18T09:24:32.482Z,1006.41
2018-08-18T09:25:31.699Z,1006.4
2018-08-18T09:26:41.521Z,1006.47
2018-08-18T09:27:40.192Z,1006.48
2018-08-18T09:28:43.009Z,1006.38
2018-08-18T09:29:51.307Z,1006.41
2018-08-18T09:31:10.867Z,1006.4
2018-08-18T09:32:05.725Z,1006.4
2018-08-18T09:33:06.702Z,1006.44
2018-08-18T09:34:06.333Z,1006.4
2018-08-18T09:35:06.080Z,1006.4
2018-08-18T09:36:07.230Z,1006.37
2018-08-18T09:37:05.773Z,1006.4
2018-08-18T09:38:05.999Z,1006.34
2018-08-18T09:39:03.846Z,1006.34
2018-08-18T09:40:01.441Z,1006.34
2018-08-18T09:40:58.586Z,1006.29
2018-08-18T09:42:06.192Z,1006.37
2018-08-18T09:43:04.253Z,1006.35
2018-08-18T09:44:00.863Z,1006.25
2018-08-18T09:45:02.341Z,1006.31
2018-08-18T09:45:57.193Z,1006.31
2018-08-18T09:46:55.542Z,1006.25
2018-08-18T09:47:59.355Z,1006.28
2018-08-18T09:48:59.809Z,1006.26
2018-08-18T09:50:12.627Z,1006.34
2018-08-18T09:51:12.236Z,1006.32
2018-08-18T09:52:16.854Z,1006.29
2018-08-18T09:53:14.629Z,1006.25
2018-08-18T09:54:16.632Z,1006.23
2018-08-18T09:55:13.839Z,1006.32
2018-08-18T09:56:11.568Z,1006.26
2018-08-18T09:57:12.922Z,1006.32
2018-08-18T09:58:12.016Z,1006.31
2018-08-18T09:59:09.534Z,1006.25
2018-08-18T10:00:10.720Z,1006.29
2018-08-18T10:01:08.481Z,1006.28
2018-08-18T10:02:11.669Z,1006.28
2018-08-18T10:03:06.768Z,1006.29
2018-08-18T10:04:05.138Z,1006.32
2018-08-18T10:05:17.986Z,1006.32
2018-08-18T10:06:14.446Z,1006.35
2018-08-18T10:07:13.706Z,1006.32
2018-08-18T10:08:15.221Z,1006.29
2018-08-18T10:09:13.126Z,1006.25
2018-08-18T10:10:11.071Z,1006.29
2018-08-18T10:11:08.786Z,1006.19
2018-08-18T10:12:10.767Z,1006.33
2018-08-18T10:13:19.970Z,1006.34
2018-08-18T10:14:19.964Z,1006.31
2018-08-18T10:15:24.527Z,1006.37
2018-08-18T10:16:23.532Z,1006.34
2018-08-18T10:17:22.813Z,1006.27
2018-08-18T10:18:21.269Z,1006.25
2018-08-18T10:19:33.465Z,1006.25
2018-08-18T10:20:29.840Z,1006.34
2018-08-18T10:21:28.022Z,1006.27
2018-08-18T10:22:25.884Z,1006.3
2018-08-18T10:23:23.653Z,1006.31
2018-08-18T10:24:22.517Z,1006.24
2018-08-18T10:25:22.656Z,1006.3
2018-08-18T10:26:21.463Z,1006.36
2018-08-18T10:27:26.822Z,1006.24
2018-08-18T10:28:27.683Z,1006.22
2018-08-18T10:29:24.246Z,1006.19
2018-08-18T10:30:35.993Z,1006.19
2018-08-18T10:31:33.444Z,1006.25
2018-08-18T10:32:34.539Z,1006.21
2018-08-18T10:33:33.920Z,1006.22
2018-08-18T10:34:31.579Z,1006.13
2018-08-18T10:35:27.588Z,1006.16
2018-08-18T10:36:28.839Z,1006.09
2018-08-18T10:37:30.553Z,1006.16
2018-08-18T10:38:31.323Z,1006.21
2018-08-18T10:39:29.669Z,1006.18
2018-08-18T10:40:27.741Z,1006.1
2018-08-18T10:41:26.942Z,1006.13
2018-08-18T10:42:25.931Z,1006.12
2018-08-18T10:43:24.244Z,1006.17
2018-08-18T10:44:19.387Z,1006.22
2018-08-18T10:45:31.770Z,1006.09
2018-08-18T10:46:29.397Z,1006.14
2018-08-18T10:47:32.143Z,1006.08
2018-08-18T10:48:30.376Z,1006.12
2018-08-18T10:49:28.775Z,1006.11
2018-08-18T10:50:30.800Z,1006.09
2018-08-18T10:51:28.700Z,1006.12
2018-08-18T10:52:28.149Z,1006.11
2018-08-18T10:53:23.804Z,1006.02
2018-08-18T10:54:25.754Z,1006.12
2018-08-18T10:55:29.049Z,1006.02
2018-08-18T10:56:37.245Z,1006.15
2018-08-18T10:57:29.010Z,1006.06
2018-08-18T10:58:43.534Z,1006.07
2018-08-18T10:59:38.202Z,1006.1
2018-08-18T11:00:44.392Z,1006.12
2018-08-18T11:01:45.237Z,1006.03
2018-08-18T11:02:48.169Z,1006.06
2018-08-18T11:03:45.844Z,1006.07
2018-08-18T11:04:45.344Z,1006.06
2018-08-18T11:05:47.428Z,1006.12
2018-08-18T11:06:46.717Z,1006.16
2018-08-18T11:07:46.172Z,1006.06
2018-08-18T11:08:44.143Z,1006.1
2018-08-18T11:09:56.681Z,1006.18
2018-08-18T11:10:53.891Z,1006.13
2018-08-18T11:11:54.664Z,1006.09
2018-08-18T11:12:53.782Z,1006.09
2018-08-18T11:13:51.829Z,1006.1
2018-08-18T11:14:51.112Z,1006.04
2018-08-18T11:15:48.625Z,1006.13
2018-08-18T11:16:51.046Z,1006.02
2018-08-18T11:17:49.717Z,1006.1
2018-08-18T11:18:47.180Z,1006.1
2018-08-18T11:19:47.901Z,1006.15
2018-08-18T11:20:45.784Z,1006.15
2018-08-18T11:21:47.286Z,1006.1
2018-08-18T11:22:46.383Z,1006.15
2018-08-18T11:23:45.765Z,1006.15
2018-08-18T11:24:43.568Z,1006.15
2018-08-18T11:25:58.516Z,1006.18
2018-08-18T11:26:54.262Z,1006.15
2018-08-18T11:27:55.027Z,1006.15
2018-08-18T11:28:53.647Z,1006.15
2018-08-18T11:29:53.769Z,1006.21
2018-08-18T11:30:53.690Z,1006.13
2018-08-18T11:31:51.699Z,1006.19
2018-08-18T11:32:49.605Z,1006.15
2018-08-18T11:33:49.484Z,1006.27
2018-08-18T11:34:50.178Z,1006.13
2018-08-18T11:35:55.041Z,1006.18
2018-08-18T11:36:55.785Z,1006.18
2018-08-18T11:37:53.717Z,1006.16
2018-08-18T11:38:57.383Z,1006.19
2018-08-18T11:39:55.212Z,1006.12
2018-08-18T11:40:54.263Z,1006.16
2018-08-18T11:41:50.774Z,1006.19
2018-08-18T11:43:03.925Z,1006.13
2018-08-18T11:44:05.002Z,1006.1
2018-08-18T11:45:03.920Z,1006.04
2018-08-18T11:46:03.937Z,1006.15
2018-08-18T11:47:06.176Z,1006.13
2018-08-18T11:48:05.804Z,1006.09
2018-08-18T11:49:10.349Z,1006.07
2018-08-18T11:50:14.100Z,1006.02
2018-08-18T11:51:15.305Z,1006.03
2018-08-18T11:52:14.836Z,1006.03
2018-08-18T11:53:14.816Z,1006.07
2018-08-18T11:54:14.609Z,1005.97
2018-08-18T11:55:15.653Z,1005.83
2018-08-18T11:56:11.308Z,1005.94
2018-08-18T11:57:12.756Z,1005.91
2018-08-18T11:58:10.339Z,1005.96
2018-08-18T11:59:22.172Z,1005.93
2018-08-18T12:00:20.319Z,1005.91
2018-08-18T12:01:22.993Z,1005.88
2018-08-18T12:02:22.184Z,1005.93
2018-08-18T12:03:21.108Z,1005.94
2018-08-18T12:04:20.856Z,1005.9
2018-08-18T12:05:20.234Z,1005.77
2018-08-18T12:06:20.668Z,1005.88
2018-08-18T12:07:21.170Z,1005.94
2018-08-18T12:08:21.552Z,1006.01
2018-08-18T12:09:19.872Z,1005.91
2018-08-18T12:10:18.059Z,1005.93
2018-08-18T12:11:19.713Z,1005.88
2018-08-18T12:12:29.127Z,1005.8
2018-08-18T12:13:25.881Z,1005.77
2018-08-18T12:14:27.890Z,1005.76
2018-08-18T12:15:27.902Z,1005.82
2018-08-18T12:16:29.077Z,1005.87
2018-08-18T12:17:28.522Z,1005.77
2018-08-18T12:18:27.830Z,1005.9
2018-08-18T12:19:28.128Z,1005.87
2018-08-18T12:20:25.540Z,1005.79
2018-08-18T12:21:23.786Z,1005.91
2018-08-18T12:22:21.332Z,1005.91
2018-08-18T12:23:16.637Z,1005.82